Time;durP1;ratioP1;P1;durP2;ratioP2;P2;SDS_P1;SDS_P2;PMS_P1;PMS_P2;Temp;Humidity;BMP_temperature;BMP_pressure;BME280_temperature;BME280_humidity;BME280_pressure;Samples;Min_cycle;Max_cycle;Signal;HPM_P1;HPM_P2
2023/08/31 00:00:05;;;;;;;3.70;3.37;;;;;;;;;;5085932;28;20692;-63
2023/08/31 00:02:35;;;;;;;5.33;3.77;;;;;;;;;;5078264;28;20686;-63
2023/08/31 00:05:03;;;;;;;2.93;2.80;;;;;;;;;;5087127;28;20813;-63
2023/08/31 00:07:33;;;;;;;5.27;3.40;;;;;;;;;;5078918;28;20686;-63
2023/08/31 00:10:06;;;;;;;3.43;3.13;;;;;;;;;;5079081;28;20704;-63
2023/08/31 00:12:34;;;;;;;3.67;3.37;;;;;;;;;;5094795;28;20677;-63
2023/08/31 00:15:04;;;;;;;3.57;3.27;;;;;;;;;;5098221;28;20713;-63
2023/08/31 00:17:32;;;;;;;3.40;3.10;;;;;;;;;;5099146;28;20716;-63
2023/08/31 00:20:00;;;;;;;4.20;3.90;;;;;;;;;;5098056;28;20693;-63
2023/08/31 00:22:29;;;;;;;4.20;3.90;;;;;;;;;;5099315;28;20680;-63
2023/08/31 00:24:58;;;;;;;8.77;3.40;;;;;;;;;;5098712;28;21062;-63
2023/08/31 00:27:29;;;;;;;4.10;3.50;;;;;;;;;;5099029;28;20659;-63
2023/08/31 00:29:58;;;;;;;3.10;2.80;;;;;;;;;;5099060;28;20697;-63
2023/08/31 00:32:26;;;;;;;3.97;3.63;;;;;;;;;;5099264;28;20671;-64
2023/08/31 00:34:54;;;;;;;4.20;3.17;;;;;;;;;;5098272;28;20725;-63
2023/08/31 00:37:23;;;;;;;4.23;3.43;;;;;;;;;;5097509;28;20697;-62
2023/08/31 00:39:52;;;;;;;5.23;4.10;;;;;;;;;;5098815;28;21210;-63
2023/08/31 00:42:22;;;;;;;4.10;3.43;;;;;;;;;;5098800;28;20663;-63
2023/08/31 00:44:50;;;;;;;3.60;3.30;;;;;;;;;;5098194;28;21109;-62
2023/08/31 00:47:18;;;;;;;3.63;3.27;;;;;;;;;;5097764;28;20759;-63
2023/08/31 00:49:47;;;;;;;3.40;3.20;;;;;;;;;;5099156;28;20743;-63
2023/08/31 00:52:15;;;;;;;4.57;3.73;;;;;;;;;;5097897;28;20710;-66
2023/08/31 00:54:43;;;;;;;3.53;3.23;;;;;;;;;;5099080;28;20746;-64
2023/08/31 00:57:11;;;;;;;4.17;3.27;;;;;;;;;;5098263;28;20686;-63
2023/08/31 00:59:41;;;;;;;3.80;3.50;;;;;;;;;;5101219;28;20676;-63
2023/08/31 01:02:14;;;;;;;3.50;3.20;;;;;;;;;;5093366;28;20625;-66
2023/08/31 01:04:46;;;;;;;3.60;3.30;;;;;;;;;;5085570;28;20669;-67
2023/08/31 01:07:20;;;;;;;3.80;3.50;;;;;;;;;;5091460;28;20955;-67
2023/08/31 01:09:52;;;;;;;4.20;3.77;;;;;;;;;;5092332;28;20651;-67
2023/08/31 01:12:29;;;;;;;4.03;3.73;;;;;;;;;;5091773;28;21011;-67
2023/08/31 01:15:07;;;;;;;3.83;3.53;;;;;;;;;;5092258;28;20643;-67
2023/08/31 01:17:43;;;;;;;3.93;3.53;;;;;;;;;;5091187;28;20619;-67
2023/08/31 01:20:12;;;;;;;3.60;3.30;;;;;;;;;;5093728;28;20960;-66
2023/08/31 01:22:44;;;;;;;5.03;3.60;;;;;;;;;;5092051;28;20577;-67
2023/08/31 01:25:14;;;;;;;6.87;4.03;;;;;;;;;;5093794;28;20697;-67
2023/08/31 01:27:43;;;;;;;5.30;4.80;;;;;;;;;;5091402;28;20617;-67
2023/08/31 01:30:11;;;;;;;4.53;4.13;;;;;;;;;;5093042;28;20661;-68
2023/08/31 01:32:45;;;;;;;4.40;4.00;;;;;;;;;;5092736;28;20610;-67
2023/08/31 01:35:15;;;;;;;4.20;3.90;;;;;;;;;;5092836;28;20703;-67
2023/08/31 01:37:47;;;;;;;13.00;4.80;;;;;;;;;;5092708;28;21150;-67
2023/08/31 01:40:18;;;;;;;6.17;4.10;;;;;;;;;;5091770;28;20641;-67
2023/08/31 01:42:48;;;;;;;5.40;4.90;;;;;;;;;;5092943;28;20573;-66
2023/08/31 01:45:20;;;;;;;4.30;4.00;;;;;;;;;;5092928;28;20957;-67
2023/08/31 01:47:48;;;;;;;5.63;4.40;;;;;;;;;;5092693;28;20608;-67
2023/08/31 01:50:17;;;;;;;4.43;4.07;;;;;;;;;;5091089;28;20623;-67
2023/08/31 01:52:45;;;;;;;4.90;4.50;;;;;;;;;;5091931;28;20655;-67
2023/08/31 01:55:15;;;;;;;9.30;4.90;;;;;;;;;;5089909;28;20632;-68
2023/08/31 01:57:45;;;;;;;5.30;4.77;;;;;;;;;;5091285;28;20582;-67
2023/08/31 02:00:20;;;;;;;5.00;4.50;;;;;;;;;;5091316;28;20935;-66
2023/08/31 02:02:49;;;;;;;6.40;4.20;;;;;;;;;;5090014;28;20603;-67
2023/08/31 02:05:17;;;;;;;8.07;4.20;;;;;;;;;;5074639;28;20707;-67
2023/08/31 02:07:46;;;;;;;4.40;4.10;;;;;;;;;;5092374;28;20633;-68
2023/08/31 02:10:14;;;;;;;7.93;5.47;;;;;;;;;;5091979;28;20632;-67
2023/08/31 02:12:46;;;;;;;7.90;5.13;;;;;;;;;;5092340;28;20623;-66
2023/08/31 02:15:14;;;;;;;10.43;5.10;;;;;;;;;;5072250;28;20606;-67
2023/08/31 02:17:43;;;;;;;5.00;4.47;;;;;;;;;;5090805;28;20620;-67
2023/08/31 02:20:13;;;;;;;6.63;5.10;;;;;;;;;;5092202;28;20977;-67
2023/08/31 02:22:42;;;;;;;6.77;4.87;;;;;;;;;;5092150;28;21094;-66
2023/08/31 02:25:10;;;;;;;5.17;4.43;;;;;;;;;;5091882;28;20615;-67
2023/08/31 02:27:38;;;;;;;8.13;5.53;;;;;;;;;;5092131;28;20622;-67
2023/08/31 02:30:09;;;;;;;5.13;4.63;;;;;;;;;;5091886;28;20702;-68
2023/08/31 02:32:37;;;;;;;5.83;5.20;;;;;;;;;;5091723;28;20609;-68
2023/08/31 02:35:06;;;;;;;5.83;5.17;;;;;;;;;;5091612;28;20653;-67
2023/08/31 02:37:36;;;;;;;5.40;5.00;;;;;;;;;;5092021;28;20970;-67
2023/08/31 02:40:06;;;;;;;5.80;4.80;;;;;;;;;;5091842;28;20624;-67
2023/08/31 02:42:34;;;;;;;6.70;5.53;;;;;;;;;;5091790;28;20996;-68
2023/08/31 02:45:02;;;;;;;7.17;6.10;;;;;;;;;;5091792;28;20621;-68
2023/08/31 02:47:32;;;;;;;7.30;5.50;;;;;;;;;;5091578;28;20995;-67
2023/08/31 02:50:00;;;;;;;7.20;5.10;;;;;;;;;;5091963;28;20636;-67
2023/08/31 02:52:29;;;;;;;6.00;5.40;;;;;;;;;;5091117;28;20603;-67
2023/08/31 02:54:57;;;;;;;5.77;5.27;;;;;;;;;;5088354;28;21012;-67
2023/08/31 02:57:26;;;;;;;7.57;5.40;;;;;;;;;;5090481;28;21125;-66
2023/08/31 02:59:54;;;;;;;7.40;5.80;;;;;;;;;;5091923;28;20604;-67
2023/08/31 03:02:22;;;;;;;5.83;5.30;;;;;;;;;;5090050;28;20604;-67
2023/08/31 03:04:52;;;;;;;9.10;5.60;;;;;;;;;;5088286;28;20980;-67
2023/08/31 03:07:20;;;;;;;6.57;4.70;;;;;;;;;;5088803;28;20596;-67
2023/08/31 03:09:50;;;;;;;4.77;4.30;;;;;;;;;;5091175;28;20600;-67
2023/08/31 03:12:18;;;;;;;7.30;4.50;;;;;;;;;;5091477;28;20686;-67
2023/08/31 03:14:47;;;;;;;5.03;4.63;;;;;;;;;;5089568;28;20623;-66
2023/08/31 03:17:15;;;;;;;5.23;4.90;;;;;;;;;;5091457;28;20641;-67
2023/08/31 03:19:43;;;;;;;5.63;4.60;;;;;;;;;;5090844;28;20592;-68
2023/08/31 03:22:14;;;;;;;8.00;5.07;;;;;;;;;;5089748;28;20670;-67
2023/08/31 03:24:43;;;;;;;5.27;4.37;;;;;;;;;;5077177;28;20584;-67
2023/08/31 03:27:11;;;;;;;5.30;4.40;;;;;;;;;;5091412;28;20626;-67
2023/08/31 03:29:41;;;;;;;7.63;5.17;;;;;;;;;;5090390;28;20621;-67
2023/08/31 03:32:09;;;;;;;5.70;3.93;;;;;;;;;;5088935;28;20628;-67
2023/08/31 03:34:38;;;;;;;4.40;4.00;;;;;;;;;;5089871;28;20639;-67
2023/08/31 03:37:07;;;;;;;5.50;4.80;;;;;;;;;;5091107;28;21174;-67
2023/08/31 03:39:38;;;;;;;4.23;4.00;;;;;;;;;;5088740;28;20969;-67
2023/08/31 03:42:06;;;;;;;6.73;4.23;;;;;;;;;;5091785;28;20590;-67
2023/08/31 03:44:35;;;;;;;5.90;4.33;;;;;;;;;;5089021;28;20633;-67
2023/08/31 03:47:03;;;;;;;5.10;4.60;;;;;;;;;;5091286;28;20624;-68
2023/08/31 03:49:31;;;;;;;4.37;4.07;;;;;;;;;;5088674;28;21198;-68
2023/08/31 03:52:00;;;;;;;7.27;3.47;;;;;;;;;;5091245;28;20631;-67
2023/08/31 03:54:28;;;;;;;7.43;4.20;;;;;;;;;;5089132;28;20607;-67
2023/08/31 03:56:58;;;;;;;4.87;3.57;;;;;;;;;;5091355;28;20600;-67
2023/08/31 03:59:26;;;;;;;4.93;4.30;;;;;;;;;;5090583;28;20596;-67
2023/08/31 04:01:54;;;;;;;5.27;4.23;;;;;;;;;;5090576;28;20632;-67
2023/08/31 04:04:22;;;;;;;3.87;3.57;;;;;;;;;;5086910;28;20650;-67
2023/08/31 04:06:51;;;;;;;8.17;4.20;;;;;;;;;;5090412;28;20592;-68
2023/08/31 04:09:19;;;;;;;9.70;4.70;;;;;;;;;;5089258;28;20625;-67
2023/08/31 04:11:48;;;;;;;5.13;4.43;;;;;;;;;;5090503;28;20628;-67
2023/08/31 04:14:18;;;;;;;7.60;4.90;;;;;;;;;;5083518;28;20610;-67
2023/08/31 04:16:49;;;;;;;6.67;5.57;;;;;;;;;;5090189;28;20594;-67
2023/08/31 04:19:17;;;;;;;5.30;4.80;;;;;;;;;;5090336;28;21189;-67
2023/08/31 04:21:45;;;;;;;5.80;5.40;;;;;;;;;;5090130;28;20592;-67
2023/08/31 04:24:14;;;;;;;6.63;6.13;;;;;;;;;;5090584;28;21221;-68
2023/08/31 04:26:42;;;;;;;16.87;7.90;;;;;;;;;;5089869;28;20621;-67
2023/08/31 04:29:10;;;;;;;9.03;7.33;;;;;;;;;;5090401;28;20604;-67
2023/08/31 04:31:40;;;;;;;7.57;6.73;;;;;;;;;;5089579;28;20664;-67
2023/08/31 04:34:08;;;;;;;7.23;6.57;;;;;;;;;;5092078;28;20652;-68
2023/08/31 04:36:36;;;;;;;7.43;6.77;;;;;;;;;;5093710;28;21000;-67
2023/08/31 04:39:04;;;;;;;10.30;6.87;;;;;;;;;;5092836;28;20996;-66
2023/08/31 04:41:32;;;;;;;7.47;6.73;;;;;;;;;;5094312;28;20639;-67
2023/08/31 04:44:01;;;;;;;6.57;5.93;;;;;;;;;;5094431;28;20625;-67
2023/08/31 04:46:29;;;;;;;10.20;7.50;;;;;;;;;;5093491;28;20604;-66
2023/08/31 04:48:59;;;;;;;10.63;7.23;;;;;;;;;;5093959;28;20621;-67
2023/08/31 04:51:32;;;;;;;7.87;7.07;;;;;;;;;;5091625;28;20686;-66
2023/08/31 04:54:00;;;;;;;6.87;6.27;;;;;;;;;;5092352;28;20602;-67
2023/08/31 04:56:31;;;;;;;6.93;6.27;;;;;;;;;;5093701;28;20639;-67
2023/08/31 04:59:00;;;;;;;10.30;6.43;;;;;;;;;;5094018;28;20638;-67
2023/08/31 05:01:28;;;;;;;7.30;5.90;;;;;;;;;;5082454;28;20625;-67
2023/08/31 05:03:57;;;;;;;8.13;6.37;;;;;;;;;;5092682;28;20641;-66
2023/08/31 05:06:27;;;;;;;8.83;6.30;;;;;;;;;;5088844;28;20935;-66
2023/08/31 05:08:56;;;;;;;7.00;6.27;;;;;;;;;;5093566;28;20639;-65
2023/08/31 05:11:24;;;;;;;5.93;5.53;;;;;;;;;;5083965;28;21267;-65
2023/08/31 05:13:53;;;;;;;6.50;5.37;;;;;;;;;;5094159;28;20701;-65
2023/08/31 05:16:21;;;;;;;6.23;5.70;;;;;;;;;;5092407;28;20595;-65
2023/08/31 05:18:50;;;;;;;7.93;5.83;;;;;;;;;;5092706;28;20620;-65
2023/08/31 05:21:18;;;;;;;16.27;5.60;;;;;;;;;;5094155;28;20579;-65
2023/08/31 05:23:48;;;;;;;5.90;5.50;;;;;;;;;;5093415;28;20981;-65
2023/08/31 05:26:16;;;;;;;8.03;5.37;;;;;;;;;;5093685;28;20964;-65
2023/08/31 05:28:44;;;;;;;7.90;5.33;;;;;;;;;;5092994;28;20636;-65
2023/08/31 05:31:13;;;;;;;8.60;5.43;;;;;;;;;;5093362;28;20951;-65
2023/08/31 05:33:41;;;;;;;5.30;4.80;;;;;;;;;;5089048;28;21029;-65
2023/08/31 05:36:09;;;;;;;6.27;5.43;;;;;;;;;;5093544;28;20549;-65
2023/08/31 05:38:38;;;;;;;6.23;5.63;;;;;;;;;;5091767;28;20592;-65
2023/08/31 05:41:09;;;;;;;6.27;5.77;;;;;;;;;;5091164;28;20633;-65
2023/08/31 05:43:39;;;;;;;5.87;5.37;;;;;;;;;;5091067;28;20580;-65
2023/08/31 05:46:08;;;;;;;5.97;5.20;;;;;;;;;;5089637;28;20606;-65
2023/08/31 05:48:36;;;;;;;5.90;5.33;;;;;;;;;;5091886;28;20614;-65
2023/08/31 05:51:04;;;;;;;5.93;5.33;;;;;;;;;;5092716;28;20652;-64
2023/08/31 05:53:33;;;;;;;6.90;4.97;;;;;;;;;;5092035;28;20657;-65
2023/08/31 05:56:04;;;;;;;5.60;5.10;;;;;;;;;;5090205;28;20643;-65
2023/08/31 05:58:34;;;;;;;5.10;4.70;;;;;;;;;;5091708;28;20584;-65
2023/08/31 06:01:02;;;;;;;5.63;5.03;;;;;;;;;;5091253;28;21393;-65
2023/08/31 06:03:31;;;;;;;8.73;5.50;;;;;;;;;;5090018;28;21005;-65
2023/08/31 06:05:59;;;;;;;7.17;4.70;;;;;;;;;;5085410;28;20643;-65
2023/08/31 06:08:29;;;;;;;4.30;4.00;;;;;;;;;;5090329;28;20596;-65
2023/08/31 06:10:57;;;;;;;6.83;4.40;;;;;;;;;;5091125;28;20610;-66
2023/08/31 06:13:25;;;;;;;6.00;4.60;;;;;;;;;;5092161;28;20971;-65
2023/08/31 06:15:57;;;;;;;6.23;3.97;;;;;;;;;;5091095;28;20628;-66
2023/08/31 06:18:25;;;;;;;4.60;4.20;;;;;;;;;;5092299;28;20601;-65
2023/08/31 06:20:54;;;;;;;5.70;3.90;;;;;;;;;;5091396;28;21165;-66
2023/08/31 06:23:22;;;;;;;5.07;4.57;;;;;;;;;;5088250;28;20588;-67
2023/08/31 06:25:50;;;;;;;4.90;4.40;;;;;;;;;;5091913;28;20629;-67
2023/08/31 06:28:18;;;;;;;4.07;3.77;;;;;;;;;;5090234;28;20632;-67
2023/08/31 06:30:47;;;;;;;5.10;3.30;;;;;;;;;;5090436;28;20618;-68
2023/08/31 06:33:17;;;;;;;5.80;3.40;;;;;;;;;;5091100;28;20669;-67
2023/08/31 06:35:48;;;;;;;6.17;3.30;;;;;;;;;;5076664;28;20580;-66
2023/08/31 06:38:16;;;;;;;6.43;3.60;;;;;;;;;;5087511;28;20700;-65
2023/08/31 06:40:44;;;;;;;3.77;3.50;;;;;;;;;;5090123;28;20632;-66
2023/08/31 06:43:13;;;;;;;4.70;2.90;;;;;;;;;;5094392;28;20621;-66
2023/08/31 06:45:41;;;;;;;4.60;2.80;;;;;;;;;;5090833;28;20658;-67
2023/08/31 06:48:09;;;;;;;3.73;2.83;;;;;;;;;;5091067;28;20614;-65
2023/08/31 06:50:39;;;;;;;4.13;3.30;;;;;;;;;;5089728;28;21171;-67
2023/08/31 06:53:07;;;;;;;4.67;3.00;;;;;;;;;;5091913;28;20657;-67
2023/08/31 06:55:35;;;;;;;3.37;3.07;;;;;;;;;;5090225;28;21144;-66
2023/08/31 06:58:04;;;;;;;3.40;2.37;;;;;;;;;;5094202;28;20623;-67
2023/08/31 07:00:33;;;;;;;3.60;3.27;;;;;;;;;;5097878;28;21237;-68
2023/08/31 07:03:01;;;;;;;6.40;3.00;;;;;;;;;;5096036;28;20639;-69
2023/08/31 07:05:29;;;;;;;5.07;3.77;;;;;;;;;;5088182;28;20635;-66
2023/08/31 07:07:59;;;;;;;3.00;2.70;;;;;;;;;;5090210;28;20682;-65
2023/08/31 07:10:27;;;;;;;3.10;2.80;;;;;;;;;;5090370;28;20628;-66
2023/08/31 07:12:55;;;;;;;4.73;2.93;;;;;;;;;;5089565;28;20661;-66
2023/08/31 07:15:24;;;;;;;4.13;3.17;;;;;;;;;;5090571;28;20622;-64
2023/08/31 07:17:52;;;;;;;5.53;3.30;;;;;;;;;;5088650;28;21212;-66
2023/08/31 07:20:20;;;;;;;4.47;3.00;;;;;;;;;;5091157;28;20609;-66
2023/08/31 07:22:48;;;;;;;3.13;2.77;;;;;;;;;;5089052;28;20620;-66
2023/08/31 07:25:18;;;;;;;4.33;2.80;;;;;;;;;;5086722;28;20687;-69
2023/08/31 07:27:46;;;;;;;6.30;3.30;;;;;;;;;;5092827;28;20625;-67
2023/08/31 07:30:14;;;;;;;3.13;2.67;;;;;;;;;;5093192;28;20992;-66
2023/08/31 07:32:43;;;;;;;3.70;3.30;;;;;;;;;;5085766;28;20652;-67
2023/08/31 07:35:11;;;;;;;4.53;3.50;;;;;;;;;;5088940;28;20661;-66
2023/08/31 07:37:39;;;;;;;3.50;3.20;;;;;;;;;;5090412;28;21041;-67
2023/08/31 07:40:09;;;;;;;7.70;3.50;;;;;;;;;;5089163;28;20681;-67
2023/08/31 07:42:39;;;;;;;3.57;3.13;;;;;;;;;;5090345;28;20607;-68
2023/08/31 07:45:08;;;;;;;3.70;3.00;;;;;;;;;;5090826;28;20623;-68
2023/08/31 07:47:36;;;;;;;6.40;3.97;;;;;;;;;;5089439;28;20984;-69
2023/08/31 07:50:04;;;;;;;4.80;3.50;;;;;;;;;;5090896;28;20622;-67
2023/08/31 07:52:33;;;;;;;3.57;3.27;;;;;;;;;;5089472;28;20713;-67
2023/08/31 07:55:01;;;;;;;4.30;3.73;;;;;;;;;;5091702;28;20588;-68
2023/08/31 07:57:30;;;;;;;4.00;3.17;;;;;;;;;;5094101;28;20610;-63
2023/08/31 07:59:59;;;;;;;10.73;3.60;;;;;;;;;;5096479;28;21014;-63
2023/08/31 08:02:27;;;;;;;4.47;3.63;;;;;;;;;;5092723;28;20605;-63
2023/08/31 08:04:55;;;;;;;12.93;3.70;;;;;;;;;;5082861;28;20712;-62
2023/08/31 08:07:24;;;;;;;4.13;3.17;;;;;;;;;;5086763;28;20613;-62
2023/08/31 08:09:52;;;;;;;4.40;3.17;;;;;;;;;;5097679;28;20609;-62
2023/08/31 08:12:20;;;;;;;3.80;3.47;;;;;;;;;;5098723;28;20666;-62
2023/08/31 08:14:48;;;;;;;3.37;3.10;;;;;;;;;;5098089;28;20971;-62
2023/08/31 08:17:18;;;;;;;3.77;3.40;;;;;;;;;;5097274;28;20706;-62
2023/08/31 08:19:46;;;;;;;6.10;3.30;;;;;;;;;;5098423;28;20666;-62
2023/08/31 08:22:14;;;;;;;6.43;3.37;;;;;;;;;;5098335;28;20708;-63
2023/08/31 08:24:43;;;;;;;5.53;2.90;;;;;;;;;;5099059;28;20673;-62
2023/08/31 08:27:11;;;;;;;3.40;2.80;;;;;;;;;;5095086;28;20625;-63
2023/08/31 08:29:39;;;;;;;5.63;2.87;;;;;;;;;;5096594;28;20620;-62
2023/08/31 08:32:08;;;;;;;4.97;2.67;;;;;;;;;;5099229;28;20687;-62
2023/08/31 08:34:38;;;;;;;5.77;2.97;;;;;;;;;;5097235;28;20664;-62
2023/08/31 08:37:06;;;;;;;7.10;3.23;;;;;;;;;;5101648;28;20720;-62
2023/08/31 08:39:34;;;;;;;8.93;3.17;;;;;;;;;;5093432;28;21048;-63
2023/08/31 08:42:06;;;;;;;3.23;2.90;;;;;;;;;;5089671;28;21060;-63
2023/08/31 08:44:35;;;;;;;5.80;3.20;;;;;;;;;;5090232;28;20619;-63
2023/08/31 08:47:03;;;;;;;3.10;2.80;;;;;;;;;;5097833;28;20726;-62
2023/08/31 08:49:32;;;;;;;5.10;3.90;;;;;;;;;;5086707;28;20756;-62
2023/08/31 08:52:02;;;;;;;5.77;3.30;;;;;;;;;;5096436;28;20705;-62
2023/08/31 08:54:31;;;;;;;9.13;3.20;;;;;;;;;;5098057;28;20653;-63
2023/08/31 08:57:00;;;;;;;3.40;3.10;;;;;;;;;;5099083;28;20700;-62
2023/08/31 08:59:29;;;;;;;4.30;3.27;;;;;;;;;;5098063;28;20624;-63
2023/08/31 09:01:57;;;;;;;4.57;3.33;;;;;;;;;;5096400;28;20620;-63
2023/08/31 09:04:25;;;;;;;6.70;3.30;;;;;;;;;;5092391;28;20661;-64
2023/08/31 09:06:54;;;;;;;13.00;4.30;;;;;;;;;;5093801;28;20633;-62
2023/08/31 09:09:23;;;;;;;3.23;2.90;;;;;;;;;;5098939;28;20631;-61
2023/08/31 09:11:51;;;;;;;6.20;3.20;;;;;;;;;;5086024;28;20619;-63
2023/08/31 09:14:20;;;;;;;4.93;3.90;;;;;;;;;;5096620;28;20657;-63
2023/08/31 09:16:49;;;;;;;8.57;3.60;;;;;;;;;;5095720;28;20609;-63
2023/08/31 09:19:21;;;;;;;3.50;3.27;;;;;;;;;;5076827;28;20625;-63
2023/08/31 09:21:49;;;;;;;13.30;4.30;;;;;;;;;;5097491;28;20617;-63
2023/08/31 09:24:18;;;;;;;4.47;4.07;;;;;;;;;;5095058;28;20643;-61
2023/08/31 09:26:49;;;;;;;3.90;3.63;;;;;;;;;;5097144;28;20674;-62
2023/08/31 09:29:17;;;;;;;3.43;3.20;;;;;;;;;;5090832;28;20613;-62
2023/08/31 09:31:46;;;;;;;4.10;3.77;;;;;;;;;;5093585;28;20689;-62
2023/08/31 09:34:14;;;;;;;4.00;3.80;;;;;;;;;;5084658;28;20674;-63
2023/08/31 09:36:43;;;;;;;4.80;4.40;;;;;;;;;;5095931;28;20621;-63
2023/08/31 09:39:12;;;;;;;5.13;4.80;;;;;;;;;;5093769;28;21239;-63
2023/08/31 09:41:55;;;;;;;5.07;4.70;;;;;;;;;;5095904;28;20618;-62
2023/08/31 09:44:23;;;;;;;5.27;4.97;;;;;;;;;;5088682;28;20609;-64
2023/08/31 09:46:52;;;;;;;5.37;5.10;;;;;;;;;;5087441;28;21075;-64
2023/08/31 09:49:22;;;;;;;6.00;5.10;;;;;;;;;;5091731;28;20636;-62
2023/08/31 09:51:51;;;;;;;4.90;4.70;;;;;;;;;;5101579;28;20616;-63
2023/08/31 09:54:21;;;;;;;7.10;5.53;;;;;;;;;;5104000;28;20665;-62
2023/08/31 09:56:49;;;;;;;5.40;5.00;;;;;;;;;;5098510;28;20600;-63
2023/08/31 09:59:19;;;;;;;5.80;5.30;;;;;;;;;;5095676;28;21000;-64
2023/08/31 10:01:48;;;;;;;6.33;5.73;;;;;;;;;;5086174;28;20617;-63
2023/08/31 10:04:17;;;;;;;5.40;5.10;;;;;;;;;;5083773;28;20665;-63
2023/08/31 10:06:45;;;;;;;5.50;5.00;;;;;;;;;;5080077;28;20631;-62
2023/08/31 10:09:15;;;;;;;6.20;5.73;;;;;;;;;;5095456;28;20625;-64
2023/08/31 10:11:44;;;;;;;5.30;4.80;;;;;;;;;;5095889;28;20684;-64
2023/08/31 10:14:12;;;;;;;5.43;5.10;;;;;;;;;;5096927;28;20653;-64
2023/08/31 10:16:42;;;;;;;5.93;5.40;;;;;;;;;;5096297;28;20621;-63
2023/08/31 10:19:11;;;;;;;5.60;5.10;;;;;;;;;;5097064;28;20640;-64
2023/08/31 10:21:39;;;;;;;6.10;5.13;;;;;;;;;;5095734;28;20625;-63
2023/08/31 10:24:07;;;;;;;5.30;4.80;;;;;;;;;;5097363;28;21032;-63
2023/08/31 10:26:35;;;;;;;5.10;4.60;;;;;;;;;;5094723;28;20636;-63
2023/08/31 10:29:04;;;;;;;5.33;4.90;;;;;;;;;;5095855;28;20624;-63
2023/08/31 10:31:33;;;;;;;6.53;5.87;;;;;;;;;;5091576;28;20618;-64
2023/08/31 10:34:04;;;;;;;5.47;5.00;;;;;;;;;;5094280;28;20661;-63
2023/08/31 10:36:39;;;;;;;6.53;5.83;;;;;;;;;;5095370;28;20573;-64
2023/08/31 10:39:08;;;;;;;6.03;5.53;;;;;;;;;;5095340;28;20601;-63
2023/08/31 10:41:37;;;;;;;6.00;5.50;;;;;;;;;;5094855;28;20615;-62
2023/08/31 10:44:19;;;;;;;5.53;5.13;;;;;;;;;;5095608;28;20666;-64
2023/08/31 10:46:48;;;;;;;5.57;5.10;;;;;;;;;;5093279;28;20640;-64
2023/08/31 10:49:18;;;;;;;11.63;5.47;;;;;;;;;;5090831;28;20637;-64
2023/08/31 10:51:47;;;;;;;7.40;5.27;;;;;;;;;;5090406;28;20601;-63
2023/08/31 10:54:21;;;;;;;5.00;4.80;;;;;;;;;;5094336;28;21020;-65
2023/08/31 10:57:06;;;;;;;22.03;6.77;;;;;;;;;;5093124;28;20615;-64
2023/08/31 10:59:45;;;;;;;6.40;4.37;;;;;;;;;;5093801;28;21192;-64
2023/08/31 11:02:29;;;;;;;9.93;4.50;;;;;;;;;;5093487;28;20999;-64
2023/08/31 11:05:03;;;;;;;10.80;4.20;;;;;;;;;;5081933;28;20719;-64
2023/08/31 11:07:31;;;;;;;5.23;4.70;;;;;;;;;;5086489;28;20601;-64
2023/08/31 11:10:16;;;;;;;9.77;4.73;;;;;;;;;;5093735;28;20990;-64
2023/08/31 11:12:45;;;;;;;5.60;4.70;;;;;;;;;;5094247;28;20635;-63
2023/08/31 11:15:14;;;;;;;5.20;4.63;;;;;;;;;;5093505;28;20649;-64
2023/08/31 11:17:43;;;;;;;7.50;4.13;;;;;;;;;;5093379;28;20966;-62
2023/08/31 11:20:17;;;;;;;4.53;4.17;;;;;;;;;;5093976;28;20700;-62
2023/08/31 11:22:46;;;;;;;7.33;5.00;;;;;;;;;;5094423;28;20665;-62
2023/08/31 11:25:15;;;;;;;4.40;4.10;;;;;;;;;;5091479;28;20613;-64
2023/08/31 11:27:44;;;;;;;5.23;4.73;;;;;;;;;;5094469;28;20605;-63
2023/08/31 11:30:13;;;;;;;5.27;4.30;;;;;;;;;;5093403;28;20617;-63
2023/08/31 11:32:45;;;;;;;4.90;4.53;;;;;;;;;;5094555;28;20717;-63
2023/08/31 11:35:13;;;;;;;5.30;4.90;;;;;;;;;;5086436;28;20654;-63
2023/08/31 11:37:44;;;;;;;7.47;5.03;;;;;;;;;;5095506;28;20619;-65
2023/08/31 11:40:14;;;;;;;5.83;4.57;;;;;;;;;;5093388;28;20584;-63
2023/08/31 11:42:42;;;;;;;7.30;4.33;;;;;;;;;;5093434;28;20631;-64
2023/08/31 11:45:12;;;;;;;5.10;4.67;;;;;;;;;;5086878;28;20619;-63
2023/08/31 11:47:40;;;;;;;5.17;4.77;;;;;;;;;;5074781;28;21006;-63
2023/08/31 11:50:10;;;;;;;7.40;4.97;;;;;;;;;;5073028;28;20695;-64
2023/08/31 11:52:38;;;;;;;5.10;4.67;;;;;;;;;;5074680;28;20610;-66
2023/08/31 11:55:13;;;;;;;5.60;5.20;;;;;;;;;;5081984;28;21304;-64
2023/08/31 11:57:42;;;;;;;9.77;4.70;;;;;;;;;;5093818;28;21185;-67
2023/08/31 12:00:11;;;;;;;5.10;4.70;;;;;;;;;;5090635;28;20613;-69
2023/08/31 12:02:39;;;;;;;5.50;5.10;;;;;;;;;;5090251;28;20605;-69
2023/08/31 12:05:09;;;;;;;8.33;5.20;;;;;;;;;;5074438;28;20674;-69
2023/08/31 12:07:41;;;;;;;5.73;5.23;;;;;;;;;;5088499;28;20642;-69
2023/08/31 12:10:10;;;;;;;5.30;4.83;;;;;;;;;;5090740;28;21115;-69
2023/08/31 12:12:39;;;;;;;5.60;5.10;;;;;;;;;;5091024;28;20609;-69
2023/08/31 12:15:08;;;;;;;6.23;5.83;;;;;;;;;;5090782;28;20653;-69
2023/08/31 12:17:39;;;;;;;6.20;5.53;;;;;;;;;;5089844;28;20601;-69
2023/08/31 12:20:09;;;;;;;5.67;5.03;;;;;;;;;;5090908;28;20589;-69
2023/08/31 12:22:38;;;;;;;5.13;4.93;;;;;;;;;;5090667;28;20609;-69
2023/08/31 12:25:06;;;;;;;5.30;5.00;;;;;;;;;;5091217;28;20845;-67
2023/08/31 12:27:35;;;;;;;6.00;5.50;;;;;;;;;;5090492;28;20650;-67
2023/08/31 12:30:05;;;;;;;8.33;5.57;;;;;;;;;;5090680;28;20613;-67
2023/08/31 12:32:33;;;;;;;8.23;5.60;;;;;;;;;;5090490;28;20589;-67
2023/08/31 12:35:03;;;;;;;6.50;5.87;;;;;;;;;;5090431;28;20721;-66
2023/08/31 12:37:31;;;;;;;7.20;6.60;;;;;;;;;;5090494;28;20639;-67
2023/08/31 12:39:59;;;;;;;6.30;5.60;;;;;;;;;;5089696;28;20618;-67
2023/08/31 12:42:27;;;;;;;6.30;5.70;;;;;;;;;;5089531;28;20605;-67
2023/08/31 12:44:55;;;;;;;6.97;6.20;;;;;;;;;;5091011;28;20658;-67
2023/08/31 12:47:25;;;;;;;7.27;6.70;;;;;;;;;;5090203;28;20605;-67
2023/08/31 12:49:53;;;;;;;6.60;6.20;;;;;;;;;;5088791;28;20690;-68
2023/08/31 12:52:22;;;;;;;6.20;5.80;;;;;;;;;;5090087;28;20629;-67
2023/08/31 12:54:50;;;;;;;7.03;6.57;;;;;;;;;;5092355;28;20664;-68
2023/08/31 12:57:18;;;;;;;8.00;7.30;;;;;;;;;;5093375;28;20617;-68
2023/08/31 12:59:46;;;;;;;7.20;6.60;;;;;;;;;;5090782;28;20625;-67
2023/08/31 13:02:14;;;;;;;6.50;6.10;;;;;;;;;;5093060;28;20709;-66
2023/08/31 13:04:44;;;;;;;6.83;6.20;;;;;;;;;;5079290;28;20669;-67
2023/08/31 13:07:13;;;;;;;7.00;6.50;;;;;;;;;;5073406;28;20978;-68
2023/08/31 13:09:41;;;;;;;6.47;6.07;;;;;;;;;;5091065;28;20677;-67
2023/08/31 13:12:10;;;;;;;6.80;6.30;;;;;;;;;;5093827;28;21317;-67
2023/08/31 13:14:38;;;;;;;6.30;5.80;;;;;;;;;;5092736;28;20666;-67
2023/08/31 13:17:07;;;;;;;7.57;6.83;;;;;;;;;;5073833;28;20605;-67
2023/08/31 13:19:35;;;;;;;6.53;6.03;;;;;;;;;;5092004;28;20629;-67
2023/08/31 13:22:05;;;;;;;7.27;6.60;;;;;;;;;;5093650;28;20635;-67
2023/08/31 13:24:33;;;;;;;7.60;6.30;;;;;;;;;;5092858;28;20625;-67
2023/08/31 13:27:01;;;;;;;7.20;5.73;;;;;;;;;;5090987;28;20645;-67
2023/08/31 13:29:30;;;;;;;8.77;7.40;;;;;;;;;;5093008;28;20637;-67
2023/08/31 13:31:58;;;;;;;6.67;6.17;;;;;;;;;;5096160;28;20629;-67
2023/08/31 13:34:26;;;;;;;6.60;5.97;;;;;;;;;;5094198;28;20648;-67
2023/08/31 13:36:54;;;;;;;5.73;5.43;;;;;;;;;;5093968;28;20797;-67
2023/08/31 13:39:25;;;;;;;6.40;5.87;;;;;;;;;;5093425;28;20625;-66
2023/08/31 13:41:52;;;;;;;6.13;5.60;;;;;;;;;;5093547;28;20613;-67
2023/08/31 13:44:21;;;;;;;6.03;5.63;;;;;;;;;;5092626;28;21036;-67
2023/08/31 13:46:49;;;;;;;6.47;6.00;;;;;;;;;;5088056;28;20975;-66
2023/08/31 13:49:18;;;;;;;7.53;6.77;;;;;;;;;;5092842;28;20621;-67
2023/08/31 13:51:46;;;;;;;6.47;6.07;;;;;;;;;;5092533;28;21207;-66
2023/08/31 13:54:14;;;;;;;8.90;6.70;;;;;;;;;;5092652;28;20616;-67
2023/08/31 13:56:44;;;;;;;8.07;6.20;;;;;;;;;;5092964;28;20649;-67
2023/08/31 13:59:12;;;;;;;6.37;5.77;;;;;;;;;;5093118;28;21178;-68
2023/08/31 14:01:40;;;;;;;8.63;5.90;;;;;;;;;;5090856;28;20613;-67
2023/08/31 14:04:08;;;;;;;6.13;5.70;;;;;;;;;;5090522;28;20657;-67
2023/08/31 14:06:37;;;;;;;7.13;6.43;;;;;;;;;;5091236;28;21100;-66
2023/08/31 14:09:05;;;;;;;5.20;4.90;;;;;;;;;;5089440;28;20664;-67
2023/08/31 14:11:35;;;;;;;5.80;5.30;;;;;;;;;;5092594;28;20633;-67
2023/08/31 14:14:09;;;;;;;6.50;5.97;;;;;;;;;;5092490;28;20626;-67
2023/08/31 14:16:37;;;;;;;6.73;5.87;;;;;;;;;;5091729;28;20659;-67
2023/08/31 14:19:05;;;;;;;7.20;6.10;;;;;;;;;;5092415;28;20631;-67
2023/08/31 14:21:34;;;;;;;7.87;5.87;;;;;;;;;;5091321;28;20613;-67
2023/08/31 14:24:04;;;;;;;6.57;5.23;;;;;;;;;;5092722;28;20948;-68
2023/08/31 14:26:32;;;;;;;5.57;5.17;;;;;;;;;;5091750;28;20622;-67
2023/08/31 14:29:00;;;;;;;8.50;5.07;;;;;;;;;;5090686;28;20627;-67
2023/08/31 14:31:30;;;;;;;5.20;4.80;;;;;;;;;;5092946;28;20991;-67
2023/08/31 14:33:58;;;;;;;6.60;4.97;;;;;;;;;;5092078;28;20967;-68
2023/08/31 14:36:27;;;;;;;4.93;4.57;;;;;;;;;;5091473;28;20655;-67
2023/08/31 14:38:56;;;;;;;5.23;4.60;;;;;;;;;;5092149;28;20610;-67
2023/08/31 14:41:24;;;;;;;5.07;4.67;;;;;;;;;;5091590;28;21166;-67
2023/08/31 14:43:52;;;;;;;4.70;4.30;;;;;;;;;;5092649;28;21210;-67
2023/08/31 14:46:21;;;;;;;7.60;4.50;;;;;;;;;;5088794;28;20621;-67
2023/08/31 14:48:51;;;;;;;5.00;4.70;;;;;;;;;;5092505;28;20621;-67
2023/08/31 14:51:19;;;;;;;4.60;4.20;;;;;;;;;;5090950;28;21004;-67
2023/08/31 14:53:48;;;;;;;4.30;4.10;;;;;;;;;;5090429;28;20625;-66